Time;durP1;ratioP1;P1;durP2;ratioP2;P2;SDS_P1;SDS_P2;PMS_P1;PMS_P2;Temp;Humidity;BMP_temperature;BMP_pressure;BME280_temperature;BME280_humidity;BME280_pressure;Samples;Min_cycle;Max_cycle;Signal;HPM_P1;HPM_P2
2021/12/01 00:02:21;;;;;;;2.20;2.00;;;8.40;68.30;;;;;;5102879;27;20455;-86
2021/12/01 00:04:50;;;;;;;2.60;2.40;;;8.40;68.40;;;;;;5118211;27;20474;-87
2021/12/01 00:07:17;;;;;;;2.30;2.10;;;8.30;68.60;;;;;;5109632;27;20460;-87
2021/12/01 00:09:45;;;;;;;7.13;2.43;;;8.30;68.40;;;;;;5113342;27;20454;-86
2021/12/01 00:12:12;;;;;;;1.93;1.80;;;8.20;68.70;;;;;;5094565;27;20456;-86
2021/12/01 00:14:39;;;;;;;2.13;2.03;;;8.20;69.10;;;;;;5095085;27;20504;-87
2021/12/01 00:17:10;;;;;;;2.30;2.10;;;8.30;69.00;;;;;;5112659;27;20949;-86
2021/12/01 00:19:38;;;;;;;2.20;2.10;;;8.30;68.60;;;;;;5103450;27;20453;-87
2021/12/01 00:22:06;;;;;;;2.40;2.20;;;8.30;68.90;;;;;;5109319;27;20453;-87
2021/12/01 00:24:34;;;;;;;2.60;2.40;;;8.30;69.10;;;;;;5112118;27;21121;-87
2021/12/01 00:27:01;;;;;;;2.03;1.93;;;8.30;69.10;;;;;;5110631;27;20530;-86
2021/12/01 00:29:28;;;;;;;2.60;2.40;;;8.40;68.80;;;;;;5102001;27;20461;-87
2021/12/01 00:31:55;;;;;;;2.47;2.13;;;8.30;69.00;;;;;;5111424;27;20474;-87
2021/12/01 00:34:23;;;;;;;2.37;2.10;;;8.40;69.40;;;;;;5109003;27;20470;-86
2021/12/01 00:36:50;;;;;;;2.53;2.33;;;8.40;69.30;;;;;;5110213;27;20464;-87
2021/12/01 00:39:19;;;;;;;3.10;2.80;;;8.50;68.90;;;;;;5108514;27;20520;-87
2021/12/01 00:41:47;;;;;;;2.90;2.70;;;8.40;69.30;;;;;;5092160;28;20988;-87
2021/12/01 00:44:14;;;;;;;3.07;2.80;;;8.50;69.10;;;;;;5110829;27;20554;-86
2021/12/01 00:46:45;;;;;;;2.90;2.70;;;8.70;68.00;;;;;;5084801;27;20998;-87
2021/12/01 00:49:12;;;;;;;3.40;2.30;;;8.90;68.00;;;;;;5109811;27;20969;-86
2021/12/01 00:51:39;;;;;;;2.53;2.20;;;9.00;67.30;;;;;;5107958;27;20860;-87
2021/12/01 00:54:06;;;;;;;2.60;2.40;;;9.00;67.60;;;;;;5112364;27;20851;-87
2021/12/01 00:56:34;;;;;;;3.30;3.00;;;9.00;67.20;;;;;;5092964;27;21080;-87
2021/12/01 00:59:01;;;;;;;2.90;2.67;;;8.70;67.60;;;;;;5108732;27;20443;-87
2021/12/01 01:01:28;;;;;;;5.70;2.20;;;8.70;68.00;;;;;;5079150;27;20458;-87
2021/12/01 01:03:55;;;;;;;2.67;2.30;;;8.80;67.20;;;;;;5112298;27;20442;-87
2021/12/01 01:06:22;;;;;;;2.50;2.30;;;8.90;67.20;;;;;;5112477;27;20488;-86
2021/12/01 01:08:50;;;;;;;2.73;2.53;;;8.90;67.20;;;;;;5112050;27;20992;-87
2021/12/01 01:16:50;;;;;;;1.80;1.70;;;9.10;66.30;;;;;;5075531;28;20442;-87
2021/12/01 01:19:18;;;;;;;2.10;1.60;;;9.20;65.50;;;;;;5113779;27;20454;-87
2021/12/01 01:21:50;;;;;;;1.73;1.63;;;9.20;65.70;;;;;;5111648;27;20455;-87
2021/12/01 01:24:17;;;;;;;2.03;1.87;;;9.10;66.00;;;;;;5109769;27;20467;-87
2021/12/01 01:26:45;;;;;;;2.03;1.80;;;9.10;65.40;;;;;;5101406;28;20451;-88
2021/12/01 01:29:13;;;;;;;1.80;1.50;;;9.00;66.10;;;;;;5093708;28;20451;-86
2021/12/01 01:31:40;;;;;;;1.87;1.60;;;9.00;65.80;;;;;;5111101;28;21226;-87
2021/12/01 01:34:07;;;;;;;1.10;1.00;;;9.00;66.10;;;;;;5107129;28;21170;-87
2021/12/01 01:36:34;;;;;;;1.30;1.20;;;8.90;67.00;;;;;;5092794;28;20461;-86
2021/12/01 01:39:01;;;;;;;1.60;1.30;;;9.00;66.70;;;;;;5113098;28;20456;-87
2021/12/01 01:41:28;;;;;;;1.57;1.47;;;8.90;66.20;;;;;;5109011;28;20473;-87
2021/12/01 01:43:56;;;;;;;1.77;1.67;;;8.90;66.80;;;;;;5110951;28;20450;-87
2021/12/01 01:46:24;;;;;;;0.83;0.83;;;8.90;66.40;;;;;;5110889;28;20973;-86
2021/12/01 01:48:53;;;;;;;1.30;1.20;;;8.90;66.40;;;;;;5109291;28;23549;-87
2021/12/01 01:51:23;;;;;;;1.17;1.07;;;8.90;67.00;;;;;;5078687;28;20555;-85
2021/12/01 01:53:53;;;;;;;1.90;1.30;;;8.90;67.00;;;;;;5111054;28;20462;-87
2021/12/01 01:56:21;;;;;;;1.37;1.20;;;8.80;67.10;;;;;;5093066;28;20485;-85
2021/12/01 01:58:48;;;;;;;1.80;1.50;;;8.80;67.40;;;;;;5095820;28;20779;-87
2021/12/01 02:01:26;;;;;;;1.40;1.30;;;8.80;67.30;;;;;;5115166;27;20451;-87
2021/12/01 02:03:55;;;;;;;1.17;1.07;;;8.80;67.00;;;;;;5084587;28;20447;-87
2021/12/01 02:06:23;;;;;;;1.20;1.00;;;8.90;66.70;;;;;;5112445;28;20465;-86
2021/12/01 02:08:51;;;;;;;1.23;1.13;;;8.90;66.60;;;;;;5108630;28;20481;-87
2021/12/01 02:11:19;;;;;;;1.23;1.13;;;8.90;67.10;;;;;;5110186;28;20504;-87
2021/12/01 02:13:47;;;;;;;1.03;0.93;;;9.10;66.50;;;;;;5110674;28;20464;-87
2021/12/01 02:16:14;;;;;;;1.53;1.20;;;9.20;66.00;;;;;;5110534;28;20454;-87
2021/12/01 02:18:42;;;;;;;0.97;0.87;;;9.30;65.90;;;;;;5093863;28;20446;-87
2021/12/01 02:21:14;;;;;;;0.90;0.90;;;9.50;65.20;;;;;;5112193;28;20441;-87
2021/12/01 02:23:44;;;;;;;1.30;1.20;;;9.50;64.80;;;;;;5100417;28;20438;-87
2021/12/01 02:26:13;;;;;;;1.30;1.20;;;9.50;65.00;;;;;;5097798;28;20515;-87
2021/12/01 02:28:42;;;;;;;1.40;1.30;;;9.30;65.20;;;;;;5109673;27;20453;-87
2021/12/01 02:31:10;;;;;;;1.13;1.00;;;9.20;65.30;;;;;;5092655;28;20463;-87
2021/12/01 02:33:37;;;;;;;1.20;1.10;;;9.20;65.60;;;;;;5108081;28;20469;-87
2021/12/01 02:36:06;;;;;;;1.30;1.20;;;9.10;65.70;;;;;;5100620;28;20807;-87
2021/12/01 02:38:34;;;;;;;1.10;1.00;;;9.30;65.30;;;;;;5091882;28;20431;-86
2021/12/01 02:41:01;;;;;;;2.20;1.10;;;9.10;65.80;;;;;;5107885;28;20837;-87
2021/12/01 02:43:29;;;;;;;1.10;1.00;;;9.20;65.70;;;;;;5084799;28;20446;-87
2021/12/01 02:45:56;;;;;;;1.17;1.07;;;9.40;65.10;;;;;;5077268;27;20465;-87
2021/12/01 02:48:24;;;;;;;1.50;1.10;;;9.30;64.50;;;;;;5114427;27;20446;-85
2021/12/01 02:50:52;;;;;;;1.40;1.00;;;9.30;64.60;;;;;;5117538;27;20495;-87
2021/12/01 02:53:21;;;;;;;1.30;1.20;;;9.30;65.20;;;;;;5113160;27;20449;-87
2021/12/01 02:55:53;;;;;;;1.40;1.30;;;9.40;65.10;;;;;;5097135;27;20545;-86
2021/12/01 02:58:21;;;;;;;2.20;1.50;;;9.40;64.70;;;;;;5112588;27;20870;-84
2021/12/01 03:00:49;;;;;;;1.57;1.47;;;9.40;64.70;;;;;;5112711;27;20455;-87
2021/12/01 03:03:18;;;;;;;1.30;1.20;;;9.30;64.50;;;;;;5112331;27;20979;-87
2021/12/01 03:05:48;;;;;;;1.63;1.53;;;9.20;64.80;;;;;;5077160;27;21096;-86
2021/12/01 03:08:17;;;;;;;1.70;1.60;;;9.10;66.00;;;;;;5120123;27;20803;-87
2021/12/01 03:10:45;;;;;;;1.30;1.20;;;9.10;65.90;;;;;;5104983;27;20465;-87
2021/12/01 03:13:14;;;;;;;1.97;1.70;;;9.20;65.30;;;;;;5111601;27;20451;-87
2021/12/01 03:15:41;;;;;;;2.47;1.77;;;9.30;65.50;;;;;;5097848;27;20461;-87
2021/12/01 03:18:08;;;;;;;2.60;1.70;;;9.30;64.50;;;;;;5098810;27;20464;-87
2021/12/01 03:20:35;;;;;;;2.80;1.40;;;9.30;64.40;;;;;;5113124;27;20455;-86
2021/12/01 03:23:02;;;;;;;1.50;1.40;;;9.40;64.20;;;;;;5096336;27;20443;-87
2021/12/01 03:25:30;;;;;;;1.20;1.10;;;9.30;63.90;;;;;;5094970;27;20535;-87
2021/12/01 03:28:00;;;;;;;1.70;1.60;;;9.30;64.40;;;;;;5113069;27;20455;-86
2021/12/01 03:30:33;;;;;;;1.57;1.47;;;9.20;64.30;;;;;;5096396;27;20439;-86
2021/12/01 03:33:00;;;;;;;1.30;1.20;;;9.10;64.30;;;;;;5086319;27;20995;-86
2021/12/01 03:35:28;;;;;;;2.50;1.53;;;9.20;65.00;;;;;;5112008;27;20573;-87
2021/12/01 03:37:55;;;;;;;1.30;1.20;;;9.00;65.00;;;;;;5100348;27;20452;-87
2021/12/01 03:40:22;;;;;;;1.53;1.20;;;9.00;65.70;;;;;;5110691;27;21038;-87
2021/12/01 03:42:49;;;;;;;1.40;1.30;;;8.80;65.70;;;;;;5094257;27;20483;-87
2021/12/01 03:45:16;;;;;;;1.30;1.20;;;8.90;66.30;;;;;;5082381;27;20477;-87
2021/12/01 03:47:45;;;;;;;1.50;1.40;;;9.20;65.50;;;;;;5102464;27;20464;-86
2021/12/01 03:50:12;;;;;;;1.40;1.30;;;9.30;64.90;;;;;;5095960;27;20559;-86
2021/12/01 03:52:39;;;;;;;1.30;1.20;;;9.30;64.70;;;;;;5095562;27;20458;-87
2021/12/01 03:55:08;;;;;;;2.20;1.40;;;9.40;64.30;;;;;;5113735;27;20474;-87
2021/12/01 03:57:35;;;;;;;1.50;1.40;;;9.30;64.30;;;;;;5113489;27;20446;-87
2021/12/01 04:00:04;;;;;;;1.50;1.40;;;9.30;64.70;;;;;;5080395;27;20459;-87
2021/12/01 04:02:39;;;;;;;1.70;1.60;;;9.10;64.90;;;;;;5097112;27;20442;-87
2021/12/01 04:05:09;;;;;;;2.27;1.80;;;8.90;65.60;;;;;;5109576;27;20474;-86
2021/12/01 04:07:36;;;;;;;1.87;1.77;;;8.80;65.90;;;;;;5095150;28;20483;-87
2021/12/01 04:10:05;;;;;;;1.83;1.73;;;8.80;66.40;;;;;;5101606;27;20481;-87
2021/12/01 04:12:33;;;;;;;2.30;1.70;;;9.00;66.10;;;;;;5111812;27;20549;-87
2021/12/01 04:15:00;;;;;;;1.87;1.67;;;9.10;65.60;;;;;;5093169;27;20467;-87
2021/12/01 04:17:27;;;;;;;2.17;1.87;;;9.10;65.00;;;;;;5085895;27;20439;-87
2021/12/01 04:19:54;;;;;;;3.53;1.77;;;9.30;65.20;;;;;;5113689;27;20450;-87
2021/12/01 04:22:23;;;;;;;1.70;1.60;;;9.40;65.30;;;;;;5109859;27;20451;-86
2021/12/01 04:24:50;;;;;;;2.90;2.20;;;9.40;64.20;;;;;;5082230;27;20474;-87
2021/12/01 04:27:17;;;;;;;3.73;2.40;;;9.60;63.90;;;;;;5113197;27;20451;-87
2021/12/01 04:29:44;;;;;;;2.37;2.03;;;9.70;63.70;;;;;;5107533;27;20833;-85
2021/12/01 04:32:11;;;;;;;4.00;2.00;;;9.60;63.30;;;;;;5093963;27;20467;-86
2021/12/01 04:34:38;;;;;;;2.33;1.53;;;9.70;63.70;;;;;;5111642;27;20465;-86
2021/12/01 04:37:06;;;;;;;2.20;1.80;;;9.70;63.10;;;;;;5111363;27;20450;-87
2021/12/01 04:39:35;;;;;;;2.03;1.60;;;9.80;63.30;;;;;;5112310;27;20462;-86
2021/12/01 04:42:05;;;;;;;2.47;2.27;;;9.60;63.70;;;;;;5095311;27;20443;-87
2021/12/01 04:44:34;;;;;;;1.73;1.63;;;9.70;64.00;;;;;;5110617;27;20481;-87
2021/12/01 04:47:03;;;;;;;2.30;1.67;;;9.30;64.20;;;;;;5096142;27;20504;-86
2021/12/01 04:49:34;;;;;;;2.50;1.87;;;9.10;65.10;;;;;;5101966;27;20875;-87
2021/12/01 04:52:01;;;;;;;3.10;1.80;;;9.30;64.90;;;;;;5111805;27;20506;-86
2021/12/01 04:54:29;;;;;;;3.23;2.30;;;9.30;64.60;;;;;;5108557;27;20473;-87
2021/12/01 04:56:58;;;;;;;3.53;2.50;;;9.40;64.30;;;;;;5093713;27;20455;-86
2021/12/01 04:59:25;;;;;;;4.43;1.97;;;9.60;64.10;;;;;;5092947;28;20525;-87
2021/12/01 05:01:55;;;;;;;2.43;2.17;;;9.70;63.60;;;;;;5096527;27;20885;-87
2021/12/01 05:04:22;;;;;;;3.33;1.57;;;9.70;63.30;;;;;;5111412;27;20524;-87
2021/12/01 05:06:50;;;;;;;4.13;2.57;;;9.40;63.80;;;;;;5094285;27;20536;-87
2021/12/01 05:09:17;;;;;;;1.77;1.67;;;9.40;64.10;;;;;;5106729;27;20447;-86
2021/12/01 05:11:45;;;;;;;2.13;1.63;;;9.40;64.30;;;;;;5108363;27;20458;-87
2021/12/01 05:14:14;;;;;;;2.70;1.83;;;9.30;64.60;;;;;;5092700;27;20462;-86
2021/12/01 05:16:42;;;;;;;23.83;9.90;;;9.30;63.70;;;;;;5095091;27;21012;-86
2021/12/01 05:19:11;;;;;;;8.00;4.93;;;9.30;64.40;;;;;;5102020;27;20483;-87
2021/12/01 05:21:38;;;;;;;2.60;2.03;;;9.30;64.40;;;;;;5110750;27;20494;-87
2021/12/01 05:24:06;;;;;;;2.40;2.20;;;9.40;64.40;;;;;;5092894;28;20953;-87
2021/12/01 05:26:33;;;;;;;2.77;1.73;;;9.20;64.80;;;;;;5096107;28;20534;-87
2021/12/01 05:29:00;;;;;;;3.50;1.80;;;9.30;64.50;;;;;;5113126;27;21501;-86
2021/12/01 05:31:29;;;;;;;1.70;1.53;;;9.40;64.00;;;;;;5106903;27;20454;-86
2021/12/01 05:33:55;;;;;;;3.87;1.97;;;9.30;64.50;;;;;;5110776;28;20446;-86
2021/12/01 05:36:22;;;;;;;1.83;1.70;;;9.30;64.60;;;;;;5112761;28;20485;-87
2021/12/01 05:38:49;;;;;;;1.93;1.83;;;9.60;63.90;;;;;;5099320;28;20445;-88
2021/12/01 05:41:16;;;;;;;1.67;1.37;;;9.60;63.40;;;;;;5109151;28;20449;-87
2021/12/01 05:43:44;;;;;;;2.20;1.20;;;9.70;63.40;;;;;;5113506;28;20945;-87
2021/12/01 05:46:11;;;;;;;1.40;1.30;;;9.80;62.70;;;;;;5112979;27;20463;-86
2021/12/01 05:48:39;;;;;;;1.40;1.30;;;9.80;61.80;;;;;;5112950;28;20993;-87
2021/12/01 05:51:06;;;;;;;1.53;1.43;;;9.70;63.30;;;;;;5097969;28;20530;-87
2021/12/01 05:53:34;;;;;;;1.77;1.33;;;9.60;63.00;;;;;;5093489;28;20991;-85
2021/12/01 05:56:01;;;;;;;3.70;2.00;;;9.70;62.90;;;;;;5108406;28;20590;-87
2021/12/01 05:58:28;;;;;;;3.30;3.00;;;9.60;62.70;;;;;;5096815;28;20493;-87
2021/12/01 06:00:55;;;;;;;11.67;10.57;;;9.60;62.70;;;;;;5108225;28;20464;-87
2021/12/01 06:03:22;;;;;;;4.03;1.57;;;9.70;63.00;;;;;;5106724;28;20535;-86
2021/12/01 06:05:51;;;;;;;3.60;3.30;;;9.80;62.60;;;;;;5093202;28;20470;-87
2021/12/01 06:08:18;;;;;;;2.20;2.10;;;9.80;62.00;;;;;;5111277;28;20451;-88
2021/12/01 06:10:45;;;;;;;2.40;2.30;;;10.00;60.70;;;;;;5105329;28;20435;-88
2021/12/01 06:13:16;;;;;;;2.50;1.77;;;9.80;61.80;;;;;;5109258;28;20974;-88
2021/12/01 06:15:43;;;;;;;2.07;1.90;;;9.80;61.90;;;;;;5110122;28;20477;-88
2021/12/01 06:18:10;;;;;;;1.80;1.70;;;9.90;62.30;;;;;;5110350;28;21005;-86
2021/12/01 06:20:38;;;;;;;3.70;1.90;;;9.80;62.20;;;;;;5091794;27;20446;-88
2021/12/01 06:23:06;;;;;;;1.80;1.70;;;9.80;61.80;;;;;;5109571;27;20447;-87
2021/12/01 06:25:33;;;;;;;1.37;1.27;;;9.80;61.80;;;;;;5079195;27;20603;-88
2021/12/01 06:28:00;;;;;;;1.80;1.33;;;9.90;61.60;;;;;;5110776;27;20454;-88
2021/12/01 06:30:31;;;;;;;1.20;1.10;;;9.90;61.60;;;;;;5075528;28;20453;-87
2021/12/01 06:32:58;;;;;;;2.10;2.00;;;9.60;62.30;;;;;;5113612;27;21102;-89
2021/12/01 06:35:25;;;;;;;1.50;1.40;;;9.70;62.60;;;;;;5096964;27;20481;-88
2021/12/01 06:37:54;;;;;;;1.93;1.20;;;9.70;62.40;;;;;;5081313;27;20456;-89
2021/12/01 06:40:24;;;;;;;1.60;1.50;;;9.70;63.20;;;;;;5113282;27;20577;-90
2021/12/01 06:42:52;;;;;;;1.87;1.07;;;9.90;62.80;;;;;;5113014;27;20490;-88
2021/12/01 06:45:19;;;;;;;2.17;1.97;;;9.80;62.60;;;;;;5112156;27;20474;-86
2021/12/01 06:47:46;;;;;;;1.93;1.40;;;9.90;62.80;;;;;;5107939;27;22612;-88
2021/12/01 06:50:15;;;;;;;3.10;2.40;;;9.90;62.40;;;;;;5099552;27;20445;-89
2021/12/01 06:52:42;;;;;;;5.17;3.30;;;9.90;62.60;;;;;;5110812;27;20469;-88
2021/12/01 06:55:10;;;;;;;4.90;3.10;;;10.00;61.50;;;;;;5103936;27;20458;-86
2021/12/01 06:57:39;;;;;;;4.77;2.83;;;10.00;61.40;;;;;;5110217;27;21059;-85
2021/12/01 07:00:10;;;;;;;5.10;3.60;;;9.90;62.30;;;;;;5102132;27;20455;-87
2021/12/01 07:02:37;;;;;;;5.10;4.60;;;10.10;61.60;;;;;;5111108;27;20453;-86
2021/12/01 07:05:06;;;;;;;20.57;13.33;;;10.10;61.00;;;;;;5112652;27;20828;-86
2021/12/01 07:07:33;;;;;;;27.53;15.30;;;10.20;61.10;;;;;;5110740;27;20458;-88
2021/12/01 07:09:59;;;;;;;5.90;5.37;;;10.10;61.00;;;;;;5112508;27;21086;-88
2021/12/01 07:12:26;;;;;;;1.73;1.50;;;10.00;60.90;;;;;;5111659;27;20478;-88
2021/12/01 07:14:55;;;;;;;2.30;2.00;;;9.90;62.30;;;;;;5095315;27;20478;-88
2021/12/01 07:17:22;;;;;;;1.83;1.70;;;9.90;62.10;;;;;;5084964;27;21191;-88
2021/12/01 07:19:49;;;;;;;1.73;1.20;;;9.90;62.70;;;;;;5109274;27;20433;-89
2021/12/01 07:22:17;;;;;;;1.67;1.50;;;9.90;62.20;;;;;;5070345;27;20522;-86
2021/12/01 07:24:45;;;;;;;1.83;1.73;;;10.00;60.80;;;;;;5100572;27;20471;-89
2021/12/01 07:27:12;;;;;;;2.77;1.60;;;10.10;60.20;;;;;;5095401;27;20470;-88
2021/12/01 07:29:42;;;;;;;2.10;1.00;;;10.10;60.50;;;;;;5112457;27;20462;-88
2021/12/01 07:32:11;;;;;;;2.07;1.27;;;10.10;60.30;;;;;;5111803;27;20454;-88
2021/12/01 07:34:42;;;;;;;1.10;0.97;;;10.20;60.90;;;;;;5110612;27;20861;-89
2021/12/01 07:37:09;;;;;;;1.60;1.50;;;10.00;60.90;;;;;;5111460;27;20451;-87
2021/12/01 07:39:36;;;;;;;1.20;1.10;;;9.90;62.10;;;;;;5102259;27;20458;-88
2021/12/01 07:42:03;;;;;;;6.13;1.40;;;10.00;61.40;;;;;;5112184;27;20461;-88
2021/12/01 07:44:30;;;;;;;1.33;1.23;;;10.00;60.70;;;;;;5096567;27;20462;-88
2021/12/01 07:46:57;;;;;;;1.20;0.80;;;10.10;60.80;;;;;;5117604;27;20456;-88
2021/12/01 07:49:26;;;;;;;1.60;0.93;;;10.00;60.90;;;;;;5095506;27;20489;-88
2021/12/01 07:51:53;;;;;;;2.07;1.20;;;10.20;60.70;;;;;;5113083;27;20471;-89
2021/12/01 07:54:20;;;;;;;1.53;0.87;;;10.20;60.50;;;;;;5095448;27;20486;-85
2021/12/01 07:56:47;;;;;;;1.90;1.50;;;10.20;60.60;;;;;;5107446;27;20442;-89
2021/12/01 07:59:16;;;;;;;2.80;2.60;;;10.10;61.10;;;;;;5109867;27;20457;-89
2021/12/01 08:01:43;;;;;;;3.80;1.70;;;10.10;60.90;;;;;;5110432;27;20454;-89
2021/12/01 08:04:10;;;;;;;2.03;1.30;;;10.20;60.60;;;;;;5099170;27;20527;-88
2021/12/01 08:06:40;;;;;;;1.10;1.00;;;10.20;60.40;;;;;;5105257;27;20470;-89
2021/12/01 08:09:07;;;;;;;1.97;1.17;;;10.10;61.10;;;;;;5110141;27;20458;-88
2021/12/01 08:11:35;;;;;;;2.30;2.20;;;10.20;61.10;;;;;;5112178;27;20533;-88
2021/12/01 08:14:02;;;;;;;1.63;1.50;;;10.20;60.20;;;;;;5107065;27;20469;-88
2021/12/01 08:16:29;;;;;;;1.20;1.10;;;10.20;60.40;;;;;;5077681;27;20985;-87
2021/12/01 08:18:56;;;;;;;1.70;1.40;;;10.20;60.60;;;;;;5113064;27;20449;-88
2021/12/01 08:21:24;;;;;;;1.80;1.20;;;10.40;60.00;;;;;;5112132;27;20454;-88
2021/12/01 08:23:53;;;;;;;1.30;1.20;;;10.50;60.10;;;;;;5098016;27;20941;-89
2021/12/01 08:26:22;;;;;;;1.60;1.10;;;10.50;59.70;;;;;;5094178;27;20450;-87
2021/12/01 08:28:49;;;;;;;3.13;2.57;;;10.30;60.70;;;;;;5092255;28;20542;-88
2021/12/01 08:31:17;;;;;;;3.73;2.50;;;10.30;60.80;;;;;;5077368;28;21045;-89
2021/12/01 08:33:45;;;;;;;1.30;1.20;;;10.50;60.30;;;;;;5110646;27;20478;-89
2021/12/01 08:36:12;;;;;;;2.00;1.20;;;10.60;59.50;;;;;;5097240;27;20524;-89
2021/12/01 08:38:40;;;;;;;1.20;1.10;;;10.50;59.80;;;;;;5098908;27;20450;-89
2021/12/01 08:41:09;;;;;;;2.13;1.50;;;10.50;59.50;;;;;;5107991;27;20527;-89
2021/12/01 08:43:36;;;;;;;1.10;1.00;;;10.60;59.40;;;;;;5100687;28;20439;-89
2021/12/01 08:46:05;;;;;;;1.20;1.10;;;10.60;59.60;;;;;;5115096;27;20465;-88
2021/12/01 08:48:32;;;;;;;1.13;1.00;;;10.60;59.50;;;;;;5098505;27;20836;-89
2021/12/01 08:51:01;;;;;;;1.27;1.17;;;10.60;59.60;;;;;;5089453;27;20459;-88
2021/12/01 08:53:29;;;;;;;1.33;1.20;;;10.40;59.90;;;;;;5108698;27;20546;-85
2021/12/01 08:55:57;;;;;;;1.10;1.00;;;10.40;60.30;;;;;;5098598;27;20540;-85
2021/12/01 08:58:25;;;;;;;1.60;1.50;;;10.50;60.90;;;;;;5109232;27;20459;-86
2021/12/01 09:00:54;;;;;;;1.20;1.10;;;10.50;59.90;;;;;;5107292;27;20819;-87
2021/12/01 09:03:22;;;;;;;1.10;0.90;;;10.70;59.80;;;;;;5112341;27;20442;-85
2021/12/01 09:05:49;;;;;;;1.40;1.30;;;10.60;59.90;;;;;;5108278;27;20505;-86
2021/12/01 09:08:20;;;;;;;1.33;1.10;;;10.50;60.70;;;;;;5109364;27;20520;-86
2021/12/01 09:10:48;;;;;;;1.70;1.50;;;10.40;61.00;;;;;;5107085;27;21163;-86
2021/12/01 09:13:15;;;;;;;1.63;1.53;;;10.50;61.00;;;;;;5080543;27;20842;-86
2021/12/01 09:15:44;;;;;;;2.00;1.90;;;10.60;60.80;;;;;;5099641;27;20492;-86
2021/12/01 09:18:12;;;;;;;4.80;1.93;;;10.60;60.40;;;;;;5094406;27;20467;-87
2021/12/01 09:20:39;;;;;;;3.50;1.63;;;10.60;60.90;;;;;;5109248;27;20845;-86
2021/12/01 09:23:06;;;;;;;1.60;1.40;;;10.60;60.50;;;;;;5089286;28;20461;-86
2021/12/01 09:25:34;;;;;;;1.40;1.30;;;10.60;60.50;;;;;;5109918;27;20478;-88
2021/12/01 09:28:02;;;;;;;2.03;1.50;;;10.70;61.80;;;;;;5106736;27;21157;-85
2021/12/01 09:30:29;;;;;;;1.53;1.40;;;10.80;60.70;;;;;;5108564;27;20439;-86
2021/12/01 09:32:57;;;;;;;2.13;1.83;;;10.90;60.50;;;;;;5091939;28;20565;-87
2021/12/01 09:35:24;;;;;;;4.50;4.20;;;10.90;60.30;;;;;;5101529;28;20490;-86
2021/12/01 09:37:51;;;;;;;3.03;1.90;;;10.90;60.70;;;;;;5107564;27;21083;-87
2021/12/01 09:40:19;;;;;;;1.00;0.90;;;11.10;60.40;;;;;;5083746;28;20442;-85
2021/12/01 09:42:51;;;;;;;1.43;1.33;;;11.00;59.90;;;;;;5082277;28;20455;-86
2021/12/01 09:45:20;;;;;;;1.77;1.53;;;11.00;60.40;;;;;;5112715;28;20492;-87
2021/12/01 09:47:47;;;;;;;2.30;1.43;;;10.90;60.70;;;;;;5113953;27;20446;-87
2021/12/01 09:50:16;;;;;;;2.87;2.00;;;10.60;61.00;;;;;;5091692;28;20486;-86
2021/12/01 09:52:43;;;;;;;1.50;1.20;;;10.60;61.40;;;;;;5104647;28;20531;-86
2021/12/01 09:55:13;;;;;;;1.03;0.93;;;10.70;61.70;;;;;;5097111;27;20576;-87
2021/12/01 09:57:52;;;;;;;1.17;1.00;;;10.90;61.00;;;;;;5108900;27;20553;-85
2021/12/01 10:00:19;;;;;;;0.90;0.80;;;10.80;61.40;;;;;;5108697;27;20446;-86
2021/12/01 10:02:46;;;;;;;3.27;3.10;;;11.00;61.00;;;;;;5112336;27;20501;-87
2021/12/01 10:05:13;;;;;;;1.37;1.27;;;11.00;60.60;;;;;;5082307;27;21097;-86
2021/12/01 10:07:42;;;;;;;1.77;1.20;;;11.10;61.00;;;;;;5115237;27;20458;-87
2021/12/01 10:10:12;;;;;;;1.50;1.00;;;11.20;60.50;;;;;;5110798;27;20558;-88
2021/12/01 10:12:51;;;;;;;1.40;1.30;;;11.00;61.00;;;;;;5115228;27;20453;-86
2021/12/01 10:15:29;;;;;;;1.00;0.90;;;10.90;61.80;;;;;;5112326;27;20490;-87
2021/12/01 10:18:12;;;;;;;1.00;0.90;;;11.20;61.10;;;;;;5089513;27;20450;-85
2021/12/01 10:20:39;;;;;;;1.20;0.90;;;11.10;61.30;;;;;;5117299;27;20549;-86
2021/12/01 10:23:11;;;;;;;3.03;0.90;;;11.20;61.20;;;;;;5096350;27;20556;-84
2021/12/01 10:25:38;;;;;;;1.60;1.40;;;10.90;61.90;;;;;;5114218;27;20553;-88
2021/12/01 10:28:06;;;;;;;1.33;1.20;;;10.90;62.20;;;;;;5100253;27;20469;-85
2021/12/01 10:30:39;;;;;;;4.80;3.17;;;11.00;62.20;;;;;;5109007;27;20486;-85
2021/12/01 10:33:08;;;;;;;2.50;1.10;;;11.00;62.00;;;;;;5092163;27;20449;-86
2021/12/01 10:35:36;;;;;;;8.30;4.90;;;11.00;62.20;;;;;;5109474;27;20466;-86
2021/12/01 10:38:04;;;;;;;1.90;1.37;;;11.10;61.70;;;;;;5097145;27;20530;-86
2021/12/01 10:40:32;;;;;;;6.40;2.90;;;11.20;61.30;;;;;;5096275;27;20459;-86
2021/12/01 10:43:01;;;;;;;12.17;5.43;;;11.40;61.20;;;;;;5110446;27;20544;-86
2021/12/01 10:45:31;;;;;;;19.60;7.10;;;11.40;60.80;;;;;;5109242;27;20473;-86
2021/12/01 10:47:59;;;;;;;16.13;8.07;;;11.50;60.70;;;;;;5098657;27;20554;-87
2021/12/01 10:50:32;;;;;;;5.00;4.00;;;11.70;60.40;;;;;;5100428;27;20475;-87
2021/12/01 10:53:04;;;;;;;1.20;1.10;;;11.70;60.20;;;;;;5097270;27;20449;-87
2021/12/01 10:55:33;;;;;;;4.20;1.00;;;11.30;60.80;;;;;;5112521;27;20486;-86
2021/12/01 10:58:03;;;;;;;2.43;1.30;;;11.20;61.10;;;;;;5101396;27;20476;-87
2021/12/01 11:00:32;;;;;;;1.37;1.20;;;11.10;61.80;;;;;;5109673;27;21165;-87
2021/12/01 11:03:07;;;;;;;2.77;2.57;;;11.20;61.30;;;;;;5114881;27;20454;-87
2021/12/01 11:05:36;;;;;;;1.50;1.23;;;11.30;61.10;;;;;;5111783;27;20458;-84
2021/12/01 11:08:12;;;;;;;1.20;1.10;;;11.10;61.50;;;;;;5088519;27;20534;-87
2021/12/01 11:10:41;;;;;;;3.00;1.40;;;11.30;61.50;;;;;;5113793;27;21066;-88
2021/12/01 11:13:09;;;;;;;1.17;1.07;;;11.20;60.90;;;;;;5114432;27;20467;-87
2021/12/01 11:15:38;;;;;;;2.07;1.70;;;11.50;61.20;;;;;;5115080;27;20497;-86
2021/12/01 11:18:07;;;;;;;1.10;1.00;;;11.70;60.20;;;;;;5118151;27;20450;-88
2021/12/01 11:20:38;;;;;;;2.63;2.20;;;11.80;59.60;;;;;;5112486;27;20987;-87
2021/12/01 11:23:18;;;;;;;1.00;0.97;;;11.70;60.00;;;;;;5120194;27;20451;-88
2021/12/01 11:25:48;;;;;;;1.40;1.20;;;11.50;61.10;;;;;;5117326;27;20454;-87
2021/12/01 11:28:17;;;;;;;1.87;1.00;;;11.60;61.10;;;;;;5100409;27;20450;-87
2021/12/01 11:30:47;;;;;;;1.47;1.37;;;11.60;60.90;;;;;;5104711;27;20477;-86
2021/12/01 11:33:17;;;;;;;4.40;1.90;;;11.70;60.90;;;;;;5094304;27;20455;-86
2021/12/01 11:35:45;;;;;;;1.30;1.20;;;11.60;61.10;;;;;;5120209;27;21098;-87
2021/12/01 11:38:13;;;;;;;1.17;1.07;;;11.60;61.30;;;;;;5083901;27;20484;-87
2021/12/01 11:40:41;;;;;;;2.40;2.07;;;11.60;60.60;;;;;;5083210;27;20442;-86
2021/12/01 11:43:11;;;;;;;3.73;2.43;;;11.80;61.10;;;;;;5097176;27;20454;-88
2021/12/01 11:45:40;;;;;;;2.30;2.10;;;11.70;60.50;;;;;;5096480;27;21025;-87
2021/12/01 11:48:12;;;;;;;1.50;1.40;;;11.80;60.30;;;;;;5085188;27;20453;-86
2021/12/01 11:50:45;;;;;;;1.50;1.40;;;11.80;60.30;;;;;;5112373;27;20458;-87
2021/12/01 11:53:20;;;;;;;1.93;1.70;;;11.80;60.30;;;;;;5095635;27;20463;-86
2021/12/01 11:56:05;;;;;;;1.57;1.47;;;11.80;60.70;;;;;;5111732;27;20568;-86
2021/12/01 11:58:57;;;;;;;1.10;1.00;;;11.90;61.10;;;;;;5113214;27;20451;-86
2021/12/01 12:01:48;;;;;;;1.40;1.20;;;12.00;61.00;;;;;;5094092;27;20859;-86
2021/12/01 12:04:29;;;;;;;1.10;1.00;;;11.90;60.70;;;;;;5110329;27;20458;-85
2021/12/01 12:07:04;;;;;;;1.20;1.10;;;11.70;61.70;;;;;;5111290;27;20444;-87
2021/12/01 12:09:31;;;;;;;3.10;2.33;;;11.60;61.50;;;;;;5112722;27;20800;-87
2021/12/01 12:12:13;;;;;;;1.07;0.97;;;11.70;61.40;;;;;;5112027;27;20454;-85
2021/12/01 12:14:55;;;;;;;1.03;0.97;;;11.80;60.80;;;;;;5110877;27;20476;-86
2021/12/01 12:17:34;;;;;;;1.57;1.20;;;11.80;60.10;;;;;;5098836;27;20539;-86
2021/12/01 12:20:10;;;;;;;2.03;1.40;;;11.90;60.40;;;;;;5110569;27;20534;-86
2021/12/01 12:22:58;;;;;;;0.87;0.80;;;11.90;60.50;;;;;;5092670;27;20988;-83
2021/12/01 12:25:46;;;;;;;1.20;1.10;;;11.80;59.80;;;;;;5070353;27;21146;-86
2021/12/01 12:28:29;;;;;;;0.80;0.80;;;11.80;61.30;;;;;;5038981;28;20543;-87
2021/12/01 12:31:00;;;;;;;0.80;0.70;;;11.80;61.20;;;;;;5055517;28;20461;-86
2021/12/01 12:33:29;;;;;;;1.53;1.17;;;11.90;60.60;;;;;;5058995;28;20457;-87
2021/12/01 12:35:59;;;;;;;1.00;0.90;;;12.00;60.30;;;;;;5038675;28;20477;-86
2021/12/01 12:38:26;;;;;;;3.30;3.00;;;12.00;60.60;;;;;;5057026;28;20441;-87
2021/12/01 12:41:09;;;;;;;2.30;1.30;;;12.10;60.50;;;;;;5040550;28;20455;-87
2021/12/01 12:43:37;;;;;;;3.03;1.40;;;12.10;60.40;;;;;;5040971;28;21014;-87
2021/12/01 12:46:08;;;;;;;3.10;1.53;;;12.00;60.30;;;;;;5056207;28;21356;-87
2021/12/01 12:48:38;;;;;;;2.10;1.33;;;11.90;60.70;;;;;;5057953;28;20457;-87
2021/12/01 12:51:16;;;;;;;16.03;8.00;;;12.10;60.90;;;;;;5057477;28;21222;-87
2021/12/01 12:54:15;;;;;;;4.47;3.70;;;12.10;60.40;;;;;;5056114;28;20451;-87
2021/12/01 12:56:54;;;;;;;3.60;3.30;;;11.90;60.50;;;;;;5048369;28;20483;-88
2021/12/01 12:59:28;;;;;;;9.40;4.17;;;12.00;61.10;;;;;;5069050;28;20464;-87
2021/12/01 13:02:16;;;;;;;1.27;1.17;;;12.20;60.70;;;;;;5055244;28;20445;-85
2021/12/01 13:05:05;;;;;;;1.70;1.60;;;12.10;60.60;;;;;;5057444;28;20488;-86
2021/12/01 13:07:44;;;;;;;1.40;1.30;;;12.10;60.80;;;;;;5038946;28;20457;-87
2021/12/01 13:10:14;;;;;;;1.30;1.03;;;12.20;60.80;;;;;;5051386;28;20960;-87